Archival Weather

Sydney Intl

Sydney, Australia (YSSY)

Report from: Wednesday, September 20, 2023 3:43 PM AEST
Current time: Saturday, December 2, 2023 2:28 PM AEDT

Current weather – Weather history – Daily summaries
Weather forecast

Temperature35.0°C (95.0°F)
Heat index32.4°C (90.3°F)
Dew point0.0°C (32.0°F)
Winds 15 kts (7.7 m/s, 17.3 mph) Northwest (310°)
Wind gusts 29 kts (14.9 m/s, 33.4 mph)
Clouds Sky clear
Altimeter29.68 in.Hg (1005 mB)
Relative humidity11 %
Density altitude2,643 ft. (806 m)
Remarks Ceiling and visibility OK
Special weather observation
Flight conditions Visual Meteorological Conditions
Raw dataSPAU31 KWBC 200549 SPECI YSSY 200543Z 31015G29KT CAVOK 35/00 Q1005
An error has occurred. This application may no longer respond until reloaded. Reload 🗙